sensor_id;sensor_type;location;lat;lon;timestamp;P1;durP1;ratioP1;P2;durP2;ratioP2
8413;SDS011;4244;48.684;9.028;2024-02-16T00:00:59;5.80;;;4.70;;
8413;SDS011;4244;48.684;9.028;2024-02-16T00:03:25;5.13;;;3.57;;
8413;SDS011;4244;48.684;9.028;2024-02-16T00:05:52;5.07;;;3.73;;
8413;SDS011;4244;48.684;9.028;2024-02-16T00:08:18;4.30;;;3.73;;
8413;SDS011;4244;48.684;9.028;2024-02-16T00:10:44;4.23;;;3.57;;
8413;SDS011;4244;48.684;9.028;2024-02-16T00:13:09;4.87;;;4.23;;
8413;SDS011;4244;48.684;9.028;2024-02-16T00:15:35;4.50;;;3.67;;
8413;SDS011;4244;48.684;9.028;2024-02-16T00:18:01;4.60;;;1.90;;
8413;SDS011;4244;48.684;9.028;2024-02-16T00:20:28;5.33;;;2.10;;
8413;SDS011;4244;48.684;9.028;2024-02-16T00:22:54;2.90;;;2.43;;
8413;SDS011;4244;48.684;9.028;2024-02-16T00:25:20;3.93;;;2.60;;
8413;SDS011;4244;48.684;9.028;2024-02-16T00:27:45;2.93;;;2.30;;
8413;SDS011;4244;48.684;9.028;2024-02-16T00:30:11;4.43;;;2.90;;
8413;SDS011;4244;48.684;9.028;2024-02-16T00:32:37;3.83;;;3.27;;
8413;SDS011;4244;48.684;9.028;2024-02-16T00:35:02;3.80;;;3.17;;
8413;SDS011;4244;48.684;9.028;2024-02-16T00:37:28;8.27;;;3.10;;
8413;SDS011;4244;48.684;9.028;2024-02-16T00:39:54;3.00;;;2.60;;
8413;SDS011;4244;48.684;9.028;2024-02-16T00:42:21;3.83;;;3.43;;
8413;SDS011;4244;48.684;9.028;2024-02-16T00:44:48;3.60;;;3.10;;
8413;SDS011;4244;48.684;9.028;2024-02-16T00:47:14;6.30;;;3.50;;
8413;SDS011;4244;48.684;9.028;2024-02-16T00:49:41;3.47;;;3.17;;
8413;SDS011;4244;48.684;9.028;2024-02-16T00:52:08;4.43;;;3.10;;
8413;SDS011;4244;48.684;9.028;2024-02-16T00:54:35;5.13;;;3.60;;
8413;SDS011;4244;48.684;9.028;2024-02-16T00:57:01;3.90;;;3.20;;
8413;SDS011;4244;48.684;9.028;2024-02-16T00:59:28;3.20;;;2.90;;
8413;SDS011;4244;48.684;9.028;2024-02-16T01:01:54;3.43;;;2.73;;
8413;SDS011;4244;48.684;9.028;2024-02-16T01:04:19;5.03;;;3.50;;
8413;SDS011;4244;48.684;9.028;2024-02-16T01:06:45;3.20;;;2.90;;
8413;SDS011;4244;48.684;9.028;2024-02-16T01:09:11;3.80;;;3.10;;
8413;SDS011;4244;48.684;9.028;2024-02-16T01:11:38;4.10;;;3.43;;
8413;SDS011;4244;48.684;9.028;2024-02-16T01:14:06;5.93;;;3.70;;
8413;SDS011;4244;48.684;9.028;2024-02-16T01:16:32;5.10;;;3.10;;
8413;SDS011;4244;48.684;9.028;2024-02-16T01:18:58;4.33;;;2.93;;
8413;SDS011;4244;48.684;9.028;2024-02-16T01:21:23;3.87;;;3.40;;
8413;SDS011;4244;48.684;9.028;2024-02-16T01:23:49;3.73;;;3.20;;
8413;SDS011;4244;48.684;9.028;2024-02-16T01:26:15;4.63;;;3.60;;
8413;SDS011;4244;48.684;9.028;2024-02-16T01:28:40;3.10;;;2.80;;
8413;SDS011;4244;48.684;9.028;2024-02-16T01:31:06;3.73;;;3.03;;
8413;SDS011;4244;48.684;9.028;2024-02-16T01:33:31;4.20;;;3.40;;
8413;SDS011;4244;48.684;9.028;2024-02-16T01:35:59;3.70;;;2.80;;
8413;SDS011;4244;48.684;9.028;2024-02-16T01:38:25;2.80;;;2.40;;
8413;SDS011;4244;48.684;9.028;2024-02-16T01:40:51;2.77;;;2.47;;
8413;SDS011;4244;48.684;9.028;2024-02-16T01:43:22;3.00;;;2.40;;
8413;SDS011;4244;48.684;9.028;2024-02-16T01:45:47;2.73;;;2.40;;
8413;SDS011;4244;48.684;9.028;2024-02-16T01:48:13;3.10;;;2.80;;
8413;SDS011;4244;48.684;9.028;2024-02-16T01:50:40;3.37;;;3.07;;
8413;SDS011;4244;48.684;9.028;2024-02-16T01:53:07;2.63;;;2.37;;
8413;SDS011;4244;48.684;9.028;2024-02-16T01:55:33;3.50;;;2.70;;
8413;SDS011;4244;48.684;9.028;2024-02-16T01:57:59;2.40;;;2.20;;
8413;SDS011;4244;48.684;9.028;2024-02-16T02:00:25;3.20;;;2.50;;
8413;SDS011;4244;48.684;9.028;2024-02-16T02:02:50;3.63;;;2.57;;
8413;SDS011;4244;48.684;9.028;2024-02-16T02:05:17;3.20;;;2.40;;
8413;SDS011;4244;48.684;9.028;2024-02-16T02:07:43;2.57;;;2.00;;
8413;SDS011;4244;48.684;9.028;2024-02-16T02:10:09;2.57;;;2.33;;
8413;SDS011;4244;48.684;9.028;2024-02-16T02:12:37;2.73;;;2.33;;
8413;SDS011;4244;48.684;9.028;2024-02-16T02:15:03;3.20;;;2.50;;
8413;SDS011;4244;48.684;9.028;2024-02-16T02:17:30;3.90;;;3.00;;
8413;SDS011;4244;48.684;9.028;2024-02-16T02:19:55;2.43;;;2.23;;
8413;SDS011;4244;48.684;9.028;2024-02-16T02:22:21;3.27;;;2.60;;
8413;SDS011;4244;48.684;9.028;2024-02-16T02:24:47;3.20;;;2.30;;
8413;SDS011;4244;48.684;9.028;2024-02-16T02:27:14;3.40;;;2.50;;
8413;SDS011;4244;48.684;9.028;2024-02-16T02:29:40;2.60;;;2.40;;
8413;SDS011;4244;48.684;9.028;2024-02-16T02:32:06;3.33;;;2.33;;
8413;SDS011;4244;48.684;9.028;2024-02-16T02:34:32;3.20;;;2.43;;
8413;SDS011;4244;48.684;9.028;2024-02-16T02:36:57;3.50;;;2.00;;
8413;SDS011;4244;48.684;9.028;2024-02-16T02:39:23;3.20;;;2.30;;
8413;SDS011;4244;48.684;9.028;2024-02-16T02:41:49;2.97;;;2.17;;
8413;SDS011;4244;48.684;9.028;2024-02-16T02:44:14;3.53;;;2.37;;
8413;SDS011;4244;48.684;9.028;2024-02-16T02:46:40;3.63;;;2.10;;
8413;SDS011;4244;48.684;9.028;2024-02-16T02:49:06;2.43;;;2.13;;
8413;SDS011;4244;48.684;9.028;2024-02-16T02:51:31;2.60;;;2.20;;
8413;SDS011;4244;48.684;9.028;2024-02-16T02:53:57;2.77;;;2.37;;
8413;SDS011;4244;48.684;9.028;2024-02-16T02:56:22;3.20;;;1.90;;
8413;SDS011;4244;48.684;9.028;2024-02-16T02:58:48;3.40;;;2.50;;
8413;SDS011;4244;48.684;9.028;2024-02-16T03:01:13;3.20;;;2.27;;
8413;SDS011;4244;48.684;9.028;2024-02-16T03:03:39;2.50;;;2.00;;
8413;SDS011;4244;48.684;9.028;2024-02-16T03:06:06;3.63;;;2.40;;
8413;SDS011;4244;48.684;9.028;2024-02-16T03:08:32;6.50;;;2.70;;
8413;SDS011;4244;48.684;9.028;2024-02-16T03:10:58;2.53;;;2.23;;
8413;SDS011;4244;48.684;9.028;2024-02-16T03:13:25;3.10;;;2.40;;
8413;SDS011;4244;48.684;9.028;2024-02-16T03:15:51;3.53;;;2.50;;
8413;SDS011;4244;48.684;9.028;2024-02-16T03:18:17;3.53;;;2.37;;
8413;SDS011;4244;48.684;9.028;2024-02-16T03:24:00;2.47;;;2.10;;
8413;SDS011;4244;48.684;9.028;2024-02-16T03:26:26;3.77;;;2.77;;
8413;SDS011;4244;48.684;9.028;2024-02-16T03:28:52;3.30;;;2.87;;
8413;SDS011;4244;48.684;9.028;2024-02-16T03:31:18;2.67;;;2.47;;
8413;SDS011;4244;48.684;9.028;2024-02-16T03:33:45;4.03;;;2.30;;
8413;SDS011;4244;48.684;9.028;2024-02-16T03:36:11;3.47;;;2.63;;
8413;SDS011;4244;48.684;9.028;2024-02-16T03:38:40;3.80;;;2.80;;
8413;SDS011;4244;48.684;9.028;2024-02-16T03:41:07;3.17;;;2.67;;
8413;SDS011;4244;48.684;9.028;2024-02-16T03:43:34;2.40;;;2.20;;
8413;SDS011;4244;48.684;9.028;2024-02-16T03:46:01;3.83;;;3.43;;
8413;SDS011;4244;48.684;9.028;2024-02-16T03:48:26;3.53;;;3.00;;
8413;SDS011;4244;48.684;9.028;2024-02-16T03:50:52;4.60;;;3.50;;
8413;SDS011;4244;48.684;9.028;2024-02-16T03:53:18;3.57;;;2.90;;
8413;SDS011;4244;48.684;9.028;2024-02-16T03:55:43;3.40;;;3.07;;
8413;SDS011;4244;48.684;9.028;2024-02-16T03:58:09;3.50;;;3.20;;
8413;SDS011;4244;48.684;9.028;2024-02-16T04:00:35;2.73;;;2.43;;
8413;SDS011;4244;48.684;9.028;2024-02-16T04:03:00;2.77;;;2.57;;
8413;SDS011;4244;48.684;9.028;2024-02-16T04:05:26;3.10;;;2.80;;
8413;SDS011;4244;48.684;9.028;2024-02-16T04:07:56;3.63;;;3.00;;
8413;SDS011;4244;48.684;9.028;2024-02-16T04:10:21;4.00;;;3.20;;
8413;SDS011;4244;48.684;9.028;2024-02-16T04:12:47;4.70;;;3.17;;
8413;SDS011;4244;48.684;9.028;2024-02-16T04:15:12;4.13;;;3.43;;
8413;SDS011;4244;48.684;9.028;2024-02-16T04:17:38;3.93;;;3.53;;
8413;SDS011;4244;48.684;9.028;2024-02-16T04:20:03;3.40;;;3.10;;
8413;SDS011;4244;48.684;9.028;2024-02-16T04:22:29;3.53;;;3.20;;
8413;SDS011;4244;48.684;9.028;2024-02-16T04:24:55;3.63;;;3.27;;
8413;SDS011;4244;48.684;9.028;2024-02-16T04:27:21;4.60;;;3.20;;
8413;SDS011;4244;48.684;9.028;2024-02-16T04:29:46;4.00;;;3.20;;
8413;SDS011;4244;48.684;9.028;2024-02-16T04:32:12;3.67;;;3.30;;
8413;SDS011;4244;48.684;9.028;2024-02-16T04:34:37;4.83;;;3.50;;
8413;SDS011;4244;48.684;9.028;2024-02-16T04:37:03;3.80;;;3.50;;
8413;SDS011;4244;48.684;9.028;2024-02-16T04:39:28;3.50;;;2.97;;
8413;SDS011;4244;48.684;9.028;2024-02-16T04:41:54;4.27;;;3.40;;
8413;SDS011;4244;48.684;9.028;2024-02-16T04:44:20;4.10;;;3.33;;
8413;SDS011;4244;48.684;9.028;2024-02-16T04:46:45;3.90;;;3.50;;
8413;SDS011;4244;48.684;9.028;2024-02-16T04:49:11;3.90;;;3.50;;
8413;SDS011;4244;48.684;9.028;2024-02-16T04:51:37;3.30;;;3.00;;
8413;SDS011;4244;48.684;9.028;2024-02-16T04:54:04;3.93;;;3.00;;
8413;SDS011;4244;48.684;9.028;2024-02-16T04:56:30;4.73;;;3.30;;
8413;SDS011;4244;48.684;9.028;2024-02-16T04:58:55;3.60;;;3.20;;
8413;SDS011;4244;48.684;9.028;2024-02-16T05:01:21;3.30;;;3.00;;
8413;SDS011;4244;48.684;9.028;2024-02-16T05:03:46;4.10;;;3.70;;
8413;SDS011;4244;48.684;9.028;2024-02-16T05:06:12;3.60;;;3.30;;
8413;SDS011;4244;48.684;9.028;2024-02-16T05:08:38;3.93;;;3.50;;
8413;SDS011;4244;48.684;9.028;2024-02-16T05:11:03;3.73;;;2.90;;
8413;SDS011;4244;48.684;9.028;2024-02-16T05:13:29;3.93;;;3.53;;
8413;SDS011;4244;48.684;9.028;2024-02-16T05:15:54;4.50;;;3.33;;
8413;SDS011;4244;48.684;9.028;2024-02-16T05:18:23;4.67;;;3.40;;
8413;SDS011;4244;48.684;9.028;2024-02-16T05:20:50;3.17;;;2.87;;
8413;SDS011;4244;48.684;9.028;2024-02-16T05:23:15;4.47;;;3.10;;
8413;SDS011;4244;48.684;9.028;2024-02-16T05:25:41;3.60;;;3.30;;
8413;SDS011;4244;48.684;9.028;2024-02-16T05:28:06;4.97;;;3.27;;
8413;SDS011;4244;48.684;9.028;2024-02-16T05:30:32;3.53;;;2.90;;
8413;SDS011;4244;48.684;9.028;2024-02-16T05:32:58;3.23;;;2.93;;
8413;SDS011;4244;48.684;9.028;2024-02-16T05:35:24;4.50;;;3.47;;
8413;SDS011;4244;48.684;9.028;2024-02-16T05:37:54;3.53;;;2.80;;
8413;SDS011;4244;48.684;9.028;2024-02-16T05:40:20;5.83;;;3.60;;
8413;SDS011;4244;48.684;9.028;2024-02-16T05:42:56;3.20;;;2.90;;
8413;SDS011;4244;48.684;9.028;2024-02-16T05:45:25;3.70;;;3.10;;
8413;SDS011;4244;48.684;9.028;2024-02-16T05:47:51;4.50;;;3.30;;
8413;SDS011;4244;48.684;9.028;2024-02-16T05:50:17;3.60;;;3.30;;
8413;SDS011;4244;48.684;9.028;2024-02-16T05:52:45;5.83;;;2.90;;
8413;SDS011;4244;48.684;9.028;2024-02-16T05:55:11;3.33;;;2.90;;
8413;SDS011;4244;48.684;9.028;2024-02-16T05:57:37;3.67;;;3.37;;
8413;SDS011;4244;48.684;9.028;2024-02-16T06:00:03;3.00;;;2.53;;
8413;SDS011;4244;48.684;9.028;2024-02-16T06:02:30;3.03;;;2.70;;
8413;SDS011;4244;48.684;9.028;2024-02-16T06:04:56;3.20;;;2.70;;
8413;SDS011;4244;48.684;9.028;2024-02-16T06:07:23;3.50;;;2.80;;
8413;SDS011;4244;48.684;9.028;2024-02-16T06:09:49;4.97;;;2.80;;
8413;SDS011;4244;48.684;9.028;2024-02-16T06:12:15;3.60;;;3.30;;
8413;SDS011;4244;48.684;9.028;2024-02-16T06:14:41;3.00;;;2.70;;
8413;SDS011;4244;48.684;9.028;2024-02-16T06:17:07;3.50;;;3.20;;
8413;SDS011;4244;48.684;9.028;2024-02-16T06:19:33;3.10;;;2.63;;
8413;SDS011;4244;48.684;9.028;2024-02-16T06:21:59;3.17;;;2.83;;
8413;SDS011;4244;48.684;9.028;2024-02-16T06:24:26;4.03;;;2.80;;
8413;SDS011;4244;48.684;9.028;2024-02-16T06:26:53;3.83;;;3.00;;
8413;SDS011;4244;48.684;9.028;2024-02-16T06:29:19;3.80;;;3.03;;
8413;SDS011;4244;48.684;9.028;2024-02-16T06:31:48;3.40;;;2.93;;
8413;SDS011;4244;48.684;9.028;2024-02-16T06:34:14;2.90;;;2.60;;
8413;SDS011;4244;48.684;9.028;2024-02-16T06:36:40;3.10;;;2.73;;
8413;SDS011;4244;48.684;9.028;2024-02-16T06:39:06;3.10;;;2.60;;
8413;SDS011;4244;48.684;9.028;2024-02-16T06:41:32;9.53;;;1.37;;
8413;SDS011;4244;48.684;9.028;2024-02-16T06:43:58;2.53;;;1.20;;
8413;SDS011;4244;48.684;9.028;2024-02-16T06:46:23;2.63;;;1.93;;
8413;SDS011;4244;48.684;9.028;2024-02-16T06:48:50;2.20;;;1.90;;
8413;SDS011;4244;48.684;9.028;2024-02-16T06:51:17;2.70;;;1.97;;
8413;SDS011;4244;48.684;9.028;2024-02-16T06:53:42;4.20;;;2.53;;
8413;SDS011;4244;48.684;9.028;2024-02-16T06:56:09;2.50;;;2.20;;
8413;SDS011;4244;48.684;9.028;2024-02-16T06:58:35;4.20;;;2.90;;
8413;SDS011;4244;48.684;9.028;2024-02-16T07:01:01;3.50;;;2.50;;
8413;SDS011;4244;48.684;9.028;2024-02-16T07:03:28;2.93;;;2.60;;
8413;SDS011;4244;48.684;9.028;2024-02-16T07:05:55;3.40;;;2.40;;
8413;SDS011;4244;48.684;9.028;2024-02-16T07:08:21;3.00;;;2.70;;
8413;SDS011;4244;48.684;9.028;2024-02-16T07:10:48;4.00;;;3.43;;
8413;SDS011;4244;48.684;9.028;2024-02-16T07:13:16;3.97;;;3.20;;
8413;SDS011;4244;48.684;9.028;2024-02-16T07:15:42;4.20;;;3.40;;
8413;SDS011;4244;48.684;9.028;2024-02-16T07:18:08;7.17;;;3.10;;
8413;SDS011;4244;48.684;9.028;2024-02-16T07:20:34;2.77;;;2.30;;
8413;SDS011;4244;48.684;9.028;2024-02-16T07:23:01;6.20;;;3.53;;
8413;SDS011;4244;48.684;9.028;2024-02-16T07:25:27;2.97;;;2.67;;
8413;SDS011;4244;48.684;9.028;2024-02-16T07:27:53;4.93;;;3.07;;
8413;SDS011;4244;48.684;9.028;2024-02-16T07:30:19;3.53;;;2.67;;
8413;SDS011;4244;48.684;9.028;2024-02-16T07:32:48;3.23;;;2.60;;
8413;SDS011;4244;48.684;9.028;2024-02-16T07:35:15;3.60;;;2.63;;
8413;SDS011;4244;48.684;9.028;2024-02-16T07:37:41;3.57;;;2.77;;
8413;SDS011;4244;48.684;9.028;2024-02-16T07:40:07;6.67;;;3.23;;
8413;SDS011;4244;48.684;9.028;2024-02-16T07:42:37;3.50;;;2.63;;
8413;SDS011;4244;48.684;9.028;2024-02-16T07:45:04;3.70;;;2.23;;
8413;SDS011;4244;48.684;9.028;2024-02-16T07:47:31;4.20;;;2.53;;
8413;SDS011;4244;48.684;9.028;2024-02-16T07:49:57;2.90;;;2.47;;
8413;SDS011;4244;48.684;9.028;2024-02-16T07:52:23;5.97;;;2.70;;
8413;SDS011;4244;48.684;9.028;2024-02-16T07:54:48;5.10;;;2.93;;
8413;SDS011;4244;48.684;9.028;2024-02-16T07:57:16;3.47;;;2.60;;
8413;SDS011;4244;48.684;9.028;2024-02-16T07:59:42;3.90;;;3.00;;
8413;SDS011;4244;48.684;9.028;2024-02-16T08:02:08;3.63;;;3.20;;
8413;SDS011;4244;48.684;9.028;2024-02-16T08:04:34;3.80;;;2.93;;
8413;SDS011;4244;48.684;9.028;2024-02-16T08:07:00;2.83;;;2.53;;
8413;SDS011;4244;48.684;9.028;2024-02-16T08:09:26;3.20;;;2.50;;
8413;SDS011;4244;48.684;9.028;2024-02-16T08:11:52;3.73;;;3.27;;
8413;SDS011;4244;48.684;9.028;2024-02-16T08:14:18;5.57;;;2.93;;
8413;SDS011;4244;48.684;9.028;2024-02-16T08:16:43;2.60;;;2.30;;
8413;SDS011;4244;48.684;9.028;2024-02-16T08:19:09;5.20;;;2.70;;
8413;SDS011;4244;48.684;9.028;2024-02-16T08:21:35;2.50;;;2.30;;
8413;SDS011;4244;48.684;9.028;2024-02-16T08:24:00;3.73;;;3.33;;
8413;SDS011;4244;48.684;9.028;2024-02-16T08:26:26;3.03;;;2.50;;
8413;SDS011;4244;48.684;9.028;2024-02-16T08:28:52;2.90;;;2.57;;
8413;SDS011;4244;48.684;9.028;2024-02-16T08:31:18;3.93;;;2.90;;
8413;SDS011;4244;48.684;9.028;2024-02-16T08:33:44;3.40;;;2.37;;
8413;SDS011;4244;48.684;9.028;2024-02-16T08:36:11;3.27;;;1.83;;
8413;SDS011;4244;48.684;9.028;2024-02-16T08:38:37;4.10;;;2.30;;
8413;SDS011;4244;48.684;9.028;2024-02-16T08:41:03;2.47;;;1.87;;
8413;SDS011;4244;48.684;9.028;2024-02-16T08:43:28;3.60;;;1.60;;
8413;SDS011;4244;48.684;9.028;2024-02-16T08:45:54;5.13;;;2.63;;
8413;SDS011;4244;48.684;9.028;2024-02-16T08:48:19;5.77;;;2.30;;
8413;SDS011;4244;48.684;9.028;2024-02-16T08:50:45;5.40;;;2.40;;
8413;SDS011;4244;48.684;9.028;2024-02-16T08:53:15;2.30;;;2.07;;
8413;SDS011;4244;48.684;9.028;2024-02-16T08:55:41;7.50;;;2.63;;
8413;SDS011;4244;48.684;9.028;2024-02-16T08:58:07;5.80;;;2.20;;
8413;SDS011;4244;48.684;9.028;2024-02-16T09:00:33;7.20;;;2.20;;
8413;SDS011;4244;48.684;9.028;2024-02-16T09:03:01;2.73;;;2.13;;
8413;SDS011;4244;48.684;9.028;2024-02-16T09:05:31;5.00;;;2.57;;
8413;SDS011;4244;48.684;9.028;2024-02-16T09:07:57;5.63;;;2.43;;
8413;SDS011;4244;48.684;9.028;2024-02-16T09:10:23;4.00;;;2.70;;
8413;SDS011;4244;48.684;9.028;2024-02-16T09:12:48;3.67;;;2.97;;
8413;SDS011;4244;48.684;9.028;2024-02-16T09:15:16;3.33;;;2.43;;
8413;SDS011;4244;48.684;9.028;2024-02-16T09:17:42;2.20;;;1.80;;
8413;SDS011;4244;48.684;9.028;2024-02-16T09:20:08;3.20;;;2.10;;
8413;SDS011;4244;48.684;9.028;2024-02-16T09:22:36;2.87;;;2.40;;
8413;SDS011;4244;48.684;9.028;2024-02-16T09:25:03;3.10;;;2.47;;
8413;SDS011;4244;48.684;9.028;2024-02-16T09:27:29;2.37;;;2.07;;
8413;SDS011;4244;48.684;9.028;2024-02-16T09:29:54;3.10;;;2.00;;
8413;SDS011;4244;48.684;9.028;2024-02-16T09:32:20;4.97;;;2.13;;
8413;SDS011;4244;48.684;9.028;2024-02-16T09:34:45;3.67;;;2.17;;
8413;SDS011;4244;48.684;9.028;2024-02-16T09:37:11;4.03;;;2.83;;
8413;SDS011;4244;48.684;9.028;2024-02-16T09:39:37;3.10;;;2.20;;
8413;SDS011;4244;48.684;9.028;2024-02-16T09:42:04;3.10;;;2.30;;
8413;SDS011;4244;48.684;9.028;2024-02-16T09:44:30;4.60;;;2.17;;
8413;SDS011;4244;48.684;9.028;2024-02-16T09:46:59;2.57;;;1.87;;
8413;SDS011;4244;48.684;9.028;2024-02-16T09:49:26;2.13;;;1.87;;
8413;SDS011;4244;48.684;9.028;2024-02-16T09:51:51;3.10;;;2.20;;
8413;SDS011;4244;48.684;9.028;2024-02-16T09:54:18;2.10;;;1.90;;
8413;SDS011;4244;48.684;9.028;2024-02-16T09:56:43;2.50;;;2.30;;
8413;SDS011;4244;48.684;9.028;2024-02-16T09:59:11;2.53;;;2.27;;
8413;SDS011;4244;48.684;9.028;2024-02-16T10:01:37;7.47;;;2.30;;
8413;SDS011;4244;48.684;9.028;2024-02-16T10:04:06;3.37;;;2.13;;
8413;SDS011;4244;48.684;9.028;2024-02-16T10:06:47;2.27;;;1.93;;
8413;SDS011;4244;48.684;9.028;2024-02-16T10:09:26;3.57;;;2.30;;
8413;SDS011;4244;48.684;9.028;2024-02-16T10:11:57;2.10;;;1.90;;
8413;SDS011;4244;48.684;9.028;2024-02-16T10:14:23;5.50;;;2.40;;
8413;SDS011;4244;48.684;9.028;2024-02-16T10:17:03;3.83;;;1.83;;
8413;SDS011;4244;48.684;9.028;2024-02-16T10:19:31;3.00;;;2.27;;
8413;SDS011;4244;48.684;9.028;2024-02-16T10:22:09;3.10;;;2.07;;
8413;SDS011;4244;48.684;9.028;2024-02-16T10:24:35;3.00;;;2.00;;
8413;SDS011;4244;48.684;9.028;2024-02-16T10:27:04;3.17;;;1.87;;
8413;SDS011;4244;48.684;9.028;2024-02-16T10:29:31;3.80;;;2.07;;
8413;SDS011;4244;48.684;9.028;2024-02-16T10:31:58;3.60;;;2.30;;
8413;SDS011;4244;48.684;9.028;2024-02-16T10:34:27;2.17;;;1.97;;
8413;SDS011;4244;48.684;9.028;2024-02-16T10:36:53;3.10;;;1.97;;
8413;SDS011;4244;48.684;9.028;2024-02-16T10:39:19;2.50;;;1.73;;
8413;SDS011;4244;48.684;9.028;2024-02-16T10:41:45;3.47;;;2.03;;
8413;SDS011;4244;48.684;9.028;2024-02-16T10:44:12;2.17;;;1.77;;
8413;SDS011;4244;48.684;9.028;2024-02-16T10:46:37;2.57;;;1.83;;
8413;SDS011;4244;48.684;9.028;2024-02-16T10:49:03;2.60;;;2.00;;
8413;SDS011;4244;48.684;9.028;2024-02-16T10:51:37;2.47;;;2.10;;
8413;SDS011;4244;48.684;9.028;2024-02-16T10:54:05;3.60;;;2.37;;
8413;SDS011;4244;48.684;9.028;2024-02-16T10:56:36;3.73;;;2.30;;
8413;SDS011;4244;48.684;9.028;2024-02-16T10:59:05;2.53;;;2.27;;
8413;SDS011;4244;48.684;9.028;2024-02-16T11:01:42;4.00;;;2.30;;
8413;SDS011;4244;48.684;9.028;2024-02-16T11:04:11;3.70;;;2.40;;
8413;SDS011;4244;48.684;9.028;2024-02-16T11:06:48;3.07;;;2.37;;
8413;SDS011;4244;48.684;9.028;2024-02-16T11:09:27;3.97;;;2.70;;
8413;SDS011;4244;48.684;9.028;2024-02-16T11:11:59;3.40;;;2.33;;
8413;SDS011;4244;48.684;9.028;2024-02-16T11:17:08;3.23;;;2.87;;
8413;SDS011;4244;48.684;9.028;2024-02-16T11:19:37;2.83;;;2.10;;
8413;SDS011;4244;48.684;9.028;2024-02-16T11:22:08;3.87;;;2.37;;
8413;SDS011;4244;48.684;9.028;2024-02-16T11:24:36;3.50;;;2.80;;
8413;SDS011;4244;48.684;9.028;2024-02-16T11:27:03;2.87;;;2.57;;
8413;SDS011;4244;48.684;9.028;2024-02-16T11:29:31;3.00;;;2.70;;
8413;SDS011;4244;48.684;9.028;2024-02-16T11:32:01;2.87;;;2.57;;
8413;SDS011;4244;48.684;9.028;2024-02-16T11:34:28;4.53;;;2.57;;
8413;SDS011;4244;48.684;9.028;2024-02-16T11:36:55;4.30;;;2.00;;
8413;SDS011;4244;48.684;9.028;2024-02-16T11:39:21;4.43;;;2.80;;
8413;SDS011;4244;48.684;9.028;2024-02-16T11:41:47;4.10;;;2.70;;
8413;SDS011;4244;48.684;9.028;2024-02-16T11:44:13;3.13;;;2.20;;
8413;SDS011;4244;48.684;9.028;2024-02-16T11:46:41;3.50;;;2.67;;
8413;SDS011;4244;48.684;9.028;2024-02-16T11:49:07;3.70;;;2.50;;
8413;SDS011;4244;48.684;9.028;2024-02-16T11:51:33;2.63;;;2.17;;
8413;SDS011;4244;48.684;9.028;2024-02-16T11:53:59;2.90;;;2.60;;
8413;SDS011;4244;48.684;9.028;2024-02-16T11:56:25;3.20;;;2.13;;
8413;SDS011;4244;48.684;9.028;2024-02-16T11:58:51;4.90;;;2.53;;
8413;SDS011;4244;48.684;9.028;2024-02-16T12:01:17;3.60;;;2.83;;
8413;SDS011;4244;48.684;9.028;2024-02-16T12:03:43;4.00;;;2.20;;
8413;SDS011;4244;48.684;9.028;2024-02-16T12:06:08;4.40;;;2.40;;
8413;SDS011;4244;48.684;9.028;2024-02-16T12:08:34;2.53;;;2.20;;
8413;SDS011;4244;48.684;9.028;2024-02-16T12:11:00;4.30;;;2.23;;
8413;SDS011;4244;48.684;9.028;2024-02-16T12:13:27;5.60;;;3.00;;
8413;SDS011;4244;48.684;9.028;2024-02-16T12:15:52;4.83;;;3.13;;
8413;SDS011;4244;48.684;9.028;2024-02-16T12:18:24;4.23;;;3.30;;
8413;SDS011;4244;48.684;9.028;2024-02-16T12:21:00;3.40;;;3.07;;
8413;SDS011;4244;48.684;9.028;2024-02-16T12:23:28;4.03;;;3.23;;
8413;SDS011;4244;48.684;9.028;2024-02-16T12:25:55;3.50;;;3.20;;
8413;SDS011;4244;48.684;9.028;2024-02-16T12:28:24;6.10;;;3.13;;
8413;SDS011;4244;48.684;9.028;2024-02-16T12:30:51;3.80;;;2.67;;
8413;SDS011;4244;48.684;9.028;2024-02-16T12:33:20;4.53;;;3.00;;
8413;SDS011;4244;48.684;9.028;2024-02-16T12:35:46;3.40;;;2.43;;
8413;SDS011;4244;48.684;9.028;2024-02-16T12:38:12;3.37;;;2.37;;
8413;SDS011;4244;48.684;9.028;2024-02-16T12:40:37;2.50;;;2.10;;
8413;SDS011;4244;48.684;9.028;2024-02-16T12:43:03;4.80;;;2.50;;
8413;SDS011;4244;48.684;9.028;2024-02-16T12:45:29;2.50;;;2.00;;
8413;SDS011;4244;48.684;9.028;2024-02-16T12:47:56;3.10;;;2.20;;
8413;SDS011;4244;48.684;9.028;2024-02-16T12:50:22;3.67;;;2.50;;
8413;SDS011;4244;48.684;9.028;2024-02-16T12:52:48;3.47;;;2.70;;
8413;SDS011;4244;48.684;9.028;2024-02-16T12:55:13;2.70;;;2.37;;
8413;SDS011;4244;48.684;9.028;2024-02-16T12:57:41;2.53;;;2.27;;
8413;SDS011;4244;48.684;9.028;2024-02-16T13:00:06;3.43;;;1.90;;
8413;SDS011;4244;48.684;9.028;2024-02-16T13:02:32;6.83;;;2.43;;
8413;SDS011;4244;48.684;9.028;2024-02-16T13:04:58;8.17;;;2.20;;
8413;SDS011;4244;48.684;9.028;2024-02-16T13:07:24;4.40;;;2.30;;
8413;SDS011;4244;48.684;9.028;2024-02-16T13:09:50;4.70;;;2.00;;
8413;SDS011;4244;48.684;9.028;2024-02-16T13:12:16;2.70;;;2.17;;
8413;SDS011;4244;48.684;9.028;2024-02-16T13:14:42;2.40;;;1.90;;
8413;SDS011;4244;48.684;9.028;2024-02-16T13:17:08;5.60;;;1.90;;
8413;SDS011;4244;48.684;9.028;2024-02-16T13:19:33;3.90;;;2.43;;
8413;SDS011;4244;48.684;9.028;2024-02-16T13:21:59;2.40;;;2.03;;
8413;SDS011;4244;48.684;9.028;2024-02-16T13:24:24;3.33;;;1.97;;
8413;SDS011;4244;48.684;9.028;2024-02-16T13:26:50;3.97;;;1.90;;
8413;SDS011;4244;48.684;9.028;2024-02-16T13:29:15;2.30;;;1.90;;
8413;SDS011;4244;48.684;9.028;2024-02-16T13:31:41;2.97;;;2.50;;
8413;SDS011;4244;48.684;9.028;2024-02-16T13:34:07;3.53;;;2.33;;
8413;SDS011;4244;48.684;9.028;2024-02-16T13:36:33;5.77;;;2.53;;
8413;SDS011;4244;48.684;9.028;2024-02-16T13:38:59;8.50;;;2.43;;
8413;SDS011;4244;48.684;9.028;2024-02-16T13:41:25;4.70;;;3.10;;
8413;SDS011;4244;48.684;9.028;2024-02-16T13:43:50;2.77;;;2.07;;
8413;SDS011;4244;48.684;9.028;2024-02-16T13:46:16;3.10;;;2.40;;
8413;SDS011;4244;48.684;9.028;2024-02-16T13:48:42;3.00;;;2.20;;
8413;SDS011;4244;48.684;9.028;2024-02-16T13:51:08;3.30;;;2.10;;
8413;SDS011;4244;48.684;9.028;2024-02-16T13:53:34;4.60;;;1.90;;
8413;SDS011;4244;48.684;9.028;2024-02-16T13:56:00;3.03;;;2.23;;
8413;SDS011;4244;48.684;9.028;2024-02-16T13:58:29;3.00;;;2.67;;
8413;SDS011;4244;48.684;9.028;2024-02-16T14:00:55;2.80;;;2.40;;
8413;SDS011;4244;48.684;9.028;2024-02-16T14:03:21;3.93;;;1.90;;
8413;SDS011;4244;48.684;9.028;2024-02-16T14:05:47;2.97;;;2.20;;
8413;SDS011;4244;48.684;9.028;2024-02-16T14:08:13;2.43;;;2.00;;
8413;SDS011;4244;48.684;9.028;2024-02-16T14:10:40;4.97;;;2.30;;
8413;SDS011;4244;48.684;9.028;2024-02-16T14:13:05;2.40;;;2.20;;
8413;SDS011;4244;48.684;9.028;2024-02-16T14:15:31;3.47;;;2.57;;
8413;SDS011;4244;48.684;9.028;2024-02-16T14:17:57;3.10;;;2.70;;
8413;SDS011;4244;48.684;9.028;2024-02-16T14:20:23;4.70;;;2.60;;
8413;SDS011;4244;48.684;9.028;2024-02-16T14:22:49;3.93;;;2.53;;
8413;SDS011;4244;48.684;9.028;2024-02-16T14:25:14;3.30;;;2.30;;
8413;SDS011;4244;48.684;9.028;2024-02-16T14:27:40;4.32;;;2.40;;
8413;SDS011;4244;48.684;9.028;2024-02-16T14:30:10;5.60;;;3.00;;
8413;SDS011;4244;48.684;9.028;2024-02-16T14:32:38;6.00;;;2.87;;
8413;SDS011;4244;48.684;9.028;2024-02-16T14:35:04;3.73;;;2.53;;
8413;SDS011;4244;48.684;9.028;2024-02-16T14:37:31;5.43;;;2.50;;
8413;SDS011;4244;48.684;9.028;2024-02-16T14:39:57;6.30;;;2.97;;
8413;SDS011;4244;48.684;9.028;2024-02-16T14:42:24;4.53;;;2.60;;
8413;SDS011;4244;48.684;9.028;2024-02-16T14:44:50;6.10;;;3.10;;
8413;SDS011;4244;48.684;9.028;2024-02-16T14:47:16;4.00;;;2.10;;
8413;SDS011;4244;48.684;9.028;2024-02-16T14:49:42;4.67;;;2.40;;
8413;SDS011;4244;48.684;9.028;2024-02-16T14:52:08;4.73;;;2.40;;
8413;SDS011;4244;48.684;9.028;2024-02-16T14:54:36;2.93;;;2.43;;
8413;SDS011;4244;48.684;9.028;2024-02-16T14:57:05;6.00;;;2.70;;
8413;SDS011;4244;48.684;9.028;2024-02-16T14:59:31;8.77;;;2.67;;
8413;SDS011;4244;48.684;9.028;2024-02-16T15:01:57;3.20;;;2.27;;
8413;SDS011;4244;48.684;9.028;2024-02-16T15:04:23;4.80;;;2.27;;
8413;SDS011;4244;48.684;9.028;2024-02-16T15:06:50;2.20;;;2.00;;
8413;SDS011;4244;48.684;9.028;2024-02-16T15:09:16;3.70;;;2.10;;
8413;SDS011;4244;48.684;9.028;2024-02-16T15:11:41;3.47;;;2.40;;
8413;SDS011;4244;48.684;9.028;2024-02-16T15:14:07;4.73;;;2.23;;
8413;SDS011;4244;48.684;9.028;2024-02-16T15:16:32;3.13;;;1.83;;